Portada
METAR-TAF:

METAR-TAF

Aeroports :

Panaji, Índia

latitud: 15-22-51N, longitud: 073-49-53E, altitud: 56 m

Observació

L'informe es va fer fa 32 minuts, a les 03:00 UTC
Vent 6 kt del Est/Nord-Est
Temperatura 25°C
Humitat 74%
Pressió 1012 hPa
Visibilitat: 3000 m
Escasses núvols a una alçada de 22000 ft
boirina

METAR: VOGO 130300Z 06006KT 3000 BR FEW220 25/20 Q1012 NOSIG

Hora: 09:02 (03:32 UTC)

Pronòstic

L'informe es va fer fa 18 hores i 32 minuts, a les 09:00 UTC
Pronòstic vàlid del 12 a les 12 UTC al 12 a les 21 UTC
Vent 10 kt del Oest
Visibilitat: 6000 m
Escasses núvols a una alçada de 9000 ft
Núvols disperses a una alçada de 22000 ft
Evolucionant progressivament
l' 12 a les 12 UTC al 12 a les 14 UTC
Vent 10 kt del Nord/Nord-Oest
Evolucionant progressivament
l' 12 a les 18 UTC al 12 a les 20 UTC
Vent 10 kt del Est/Nord-Est
Visibilitat: 5000 m

TAF: VOGO 120900Z 1212/1221 26010KT 6000 FEW090 SCT220 BECMG 1212/1214 33010KT BECMG 1218/1220 06010KT 5000 BR/HZ

Observacions i pronòstics meteorològics de més de 4000 aeroports (METAR i TAF).

Les estacions disponibles són els punts grocs i vermells al mapa.

Posi el ratolí al punt desitjat per veure el nom de l'estació.

Feu clic per veure les observacions i els pronòstics meteorològics.

Per canviar el mapa: feu clic els botons verds amb una creu de color negre per apropar; al botó verd amb un guió per allunyar la imatge; o en les fletxes verdes per a mapes adjacents.


METAR-TAF: